Carrboro, North Carolina
Current Conditions -  °F | °C
As of 3:56 AM on Wednesday 26 Nov 2014 (Local Time) from KIGX Reporting Station
Light Rain Light Rain  
Wind Chill: 10°   Ceiling: 600
Heat Index: 10°   Visibility: 3mi
Dew Point:   Wind: 9mph
Humidity: 89%   Direction: 20°NNE
Pressure: 29.91"   Gusts: 20mph
Location:  35.91°N, 79.08°W
Report Text: KIGX 260856Z AUTO 02008G17KT 3SM -RA BR BKN006 OVC020 10/08 A2991 RMK AO2 SLP126 P0015 60045 T01000083 58023
Loading
Personal Weather Stations






























Interactive Weather Map New forecast layout! Learn more

10-Day Weather Forecast

Advertisements
Track Severe Weather on mobile